sensor_id;sensor_type;location;lat;lon;timestamp;temperature;humidity
18260;DHT22;9256;52.236;5.712;2023-03-23T00:00:58;10.90;99.90
18260;DHT22;9256;52.236;5.712;2023-03-23T00:03:28;10.90;99.90
18260;DHT22;9256;52.236;5.712;2023-03-23T00:05:57;11.00;99.90
18260;DHT22;9256;52.236;5.712;2023-03-23T00:08:30;11.00;99.90
18260;DHT22;9256;52.236;5.712;2023-03-23T00:10:57;10.90;99.90
18260;DHT22;9256;52.236;5.712;2023-03-23T00:13:27;10.90;99.90
18260;DHT22;9256;52.236;5.712;2023-03-23T00:15:54;10.90;99.90
18260;DHT22;9256;52.236;5.712;2023-03-23T00:18:23;10.90;99.90
18260;DHT22;9256;52.236;5.712;2023-03-23T00:20:53;11.00;99.90
18260;DHT22;9256;52.236;5.712;2023-03-23T00:23:22;11.00;99.90
18260;DHT22;9256;52.236;5.712;2023-03-23T00:25:51;10.90;99.90
18260;DHT22;9256;52.236;5.712;2023-03-23T00:28:22;10.90;99.90
18260;DHT22;9256;52.236;5.712;2023-03-23T00:30:55;10.80;99.90
18260;DHT22;9256;52.236;5.712;2023-03-23T00:33:22;10.90;99.90
18260;DHT22;9256;52.236;5.712;2023-03-23T00:35:50;10.90;99.90
18260;DHT22;9256;52.236;5.712;2023-03-23T00:38:18;10.90;99.90
18260;DHT22;9256;52.236;5.712;2023-03-23T00:40:45;10.90;99.90
18260;DHT22;9256;52.236;5.712;2023-03-23T00:43:13;11.00;99.90
18260;DHT22;9256;52.236;5.712;2023-03-23T00:45:41;11.00;99.90
18260;DHT22;9256;52.236;5.712;2023-03-23T00:48:08;11.00;99.90
18260;DHT22;9256;52.236;5.712;2023-03-23T00:50:35;11.00;99.90
18260;DHT22;9256;52.236;5.712;2023-03-23T00:53:03;11.10;99.90
18260;DHT22;9256;52.236;5.712;2023-03-23T00:55:30;11.10;99.90
18260;DHT22;9256;52.236;5.712;2023-03-23T00:57:57;11.20;99.90
18260;DHT22;9256;52.236;5.712;2023-03-23T01:00:24;11.10;99.90
18260;DHT22;9256;52.236;5.712;2023-03-23T01:02:52;11.10;99.90
18260;DHT22;9256;52.236;5.712;2023-03-23T01:05:20;11.10;99.90
18260;DHT22;9256;52.236;5.712;2023-03-23T01:07:47;11.10;99.90
18260;DHT22;9256;52.236;5.712;2023-03-23T01:10:15;11.10;99.90
18260;DHT22;9256;52.236;5.712;2023-03-23T01:12:44;11.10;99.90
18260;DHT22;9256;52.236;5.712;2023-03-23T01:15:15;11.10;99.90
18260;DHT22;9256;52.236;5.712;2023-03-23T01:17:43;11.10;99.90
18260;DHT22;9256;52.236;5.712;2023-03-23T01:20:11;11.10;99.90
18260;DHT22;9256;52.236;5.712;2023-03-23T01:22:39;11.10;99.90
18260;DHT22;9256;52.236;5.712;2023-03-23T01:25:07;11.10;99.90
18260;DHT22;9256;52.236;5.712;2023-03-23T01:27:36;11.10;99.90
18260;DHT22;9256;52.236;5.712;2023-03-23T01:30:04;11.10;99.90
18260;DHT22;9256;52.236;5.712;2023-03-23T01:32:31;11.10;99.90
18260;DHT22;9256;52.236;5.712;2023-03-23T01:34:58;11.20;99.90
18260;DHT22;9256;52.236;5.712;2023-03-23T01:37:25;11.20;99.90
18260;DHT22;9256;52.236;5.712;2023-03-23T01:39:53;11.20;99.90
18260;DHT22;9256;52.236;5.712;2023-03-23T01:42:22;11.20;99.90
18260;DHT22;9256;52.236;5.712;2023-03-23T01:47:58;11.20;99.90
18260;DHT22;9256;52.236;5.712;2023-03-23T01:50:27;11.20;99.90
18260;DHT22;9256;52.236;5.712;2023-03-23T01:52:57;11.10;99.90
18260;DHT22;9256;52.236;5.712;2023-03-23T01:55:26;11.20;99.90
18260;DHT22;9256;52.236;5.712;2023-03-23T01:57:54;11.10;99.90
18260;DHT22;9256;52.236;5.712;2023-03-23T02:00:23;11.10;99.90
18260;DHT22;9256;52.236;5.712;2023-03-23T02:02:52;11.10;99.90
18260;DHT22;9256;52.236;5.712;2023-03-23T02:05:26;11.20;99.90
18260;DHT22;9256;52.236;5.712;2023-03-23T02:07:57;11.10;99.90
18260;DHT22;9256;52.236;5.712;2023-03-23T02:10:29;11.10;99.90
18260;DHT22;9256;52.236;5.712;2023-03-23T02:12:56;11.10;99.90
18260;DHT22;9256;52.236;5.712;2023-03-23T02:15:25;11.20;99.90
18260;DHT22;9256;52.236;5.712;2023-03-23T02:17:58;11.20;99.90
18260;DHT22;9256;52.236;5.712;2023-03-23T02:20:45;11.20;99.90
18260;DHT22;9256;52.236;5.712;2023-03-23T02:26:21;11.20;99.90
18260;DHT22;9256;52.236;5.712;2023-03-23T02:29:19;11.20;99.90
18260;DHT22;9256;52.236;5.712;2023-03-23T02:32:04;11.20;99.90
18260;DHT22;9256;52.236;5.712;2023-03-23T02:34:39;11.20;99.90
18260;DHT22;9256;52.236;5.712;2023-03-23T02:37:11;11.30;99.90
18260;DHT22;9256;52.236;5.712;2023-03-23T02:39:44;11.30;99.90
18260;DHT22;9256;52.236;5.712;2023-03-23T02:42:14;11.30;99.90
18260;DHT22;9256;52.236;5.712;2023-03-23T02:44:44;11.20;99.90
18260;DHT22;9256;52.236;5.712;2023-03-23T02:47:16;11.20;99.90
18260;DHT22;9256;52.236;5.712;2023-03-23T02:49:47;11.30;99.90
18260;DHT22;9256;52.236;5.712;2023-03-23T02:52:18;11.30;99.90
18260;DHT22;9256;52.236;5.712;2023-03-23T02:54:48;11.20;99.90
18260;DHT22;9256;52.236;5.712;2023-03-23T02:57:16;11.30;99.90
18260;DHT22;9256;52.236;5.712;2023-03-23T02:59:44;11.30;99.90
18260;DHT22;9256;52.236;5.712;2023-03-23T03:02:13;11.40;99.90
18260;DHT22;9256;52.236;5.712;2023-03-23T03:04:44;11.50;99.90
18260;DHT22;9256;52.236;5.712;2023-03-23T03:07:39;11.50;99.90
18260;DHT22;9256;52.236;5.712;2023-03-23T03:10:18;11.50;99.90
18260;DHT22;9256;52.236;5.712;2023-03-23T03:12:53;11.50;99.90
18260;DHT22;9256;52.236;5.712;2023-03-23T03:15:29;11.40;99.90
18260;DHT22;9256;52.236;5.712;2023-03-23T03:18:02;11.50;99.90
18260;DHT22;9256;52.236;5.712;2023-03-23T03:20:31;11.40;99.90
18260;DHT22;9256;52.236;5.712;2023-03-23T03:23:02;11.50;99.90
18260;DHT22;9256;52.236;5.712;2023-03-23T03:25:29;11.50;99.90
18260;DHT22;9256;52.236;5.712;2023-03-23T03:27:57;11.50;99.90
18260;DHT22;9256;52.236;5.712;2023-03-23T03:30:28;11.50;99.90
18260;DHT22;9256;52.236;5.712;2023-03-23T03:32:57;11.50;99.90
18260;DHT22;9256;52.236;5.712;2023-03-23T03:35:29;11.50;99.90
18260;DHT22;9256;52.236;5.712;2023-03-23T03:37:57;11.50;99.90
18260;DHT22;9256;52.236;5.712;2023-03-23T03:40:32;11.60;99.90
18260;DHT22;9256;52.236;5.712;2023-03-23T03:42:59;11.50;99.90
18260;DHT22;9256;52.236;5.712;2023-03-23T03:45:26;11.50;99.90
18260;DHT22;9256;52.236;5.712;2023-03-23T03:47:52;11.60;99.90
18260;DHT22;9256;52.236;5.712;2023-03-23T03:50:19;11.60;99.90
18260;DHT22;9256;52.236;5.712;2023-03-23T03:52:46;11.60;99.90
18260;DHT22;9256;52.236;5.712;2023-03-23T03:55:13;11.60;99.90
18260;DHT22;9256;52.236;5.712;2023-03-23T03:57:43;11.70;99.90
18260;DHT22;9256;52.236;5.712;2023-03-23T04:00:11;11.70;99.90
18260;DHT22;9256;52.236;5.712;2023-03-23T04:02:41;11.70;99.90
18260;DHT22;9256;52.236;5.712;2023-03-23T04:05:08;11.60;99.90
18260;DHT22;9256;52.236;5.712;2023-03-23T04:07:36;11.60;99.90
18260;DHT22;9256;52.236;5.712;2023-03-23T04:10:06;11.70;99.90
18260;DHT22;9256;52.236;5.712;2023-03-23T04:12:33;11.80;99.90
18260;DHT22;9256;52.236;5.712;2023-03-23T04:15:03;11.70;99.90
18260;DHT22;9256;52.236;5.712;2023-03-23T04:17:30;11.70;99.90
18260;DHT22;9256;52.236;5.712;2023-03-23T04:19:57;11.70;99.90
18260;DHT22;9256;52.236;5.712;2023-03-23T04:22:26;11.80;99.90
18260;DHT22;9256;52.236;5.712;2023-03-23T04:24:56;11.80;99.90
18260;DHT22;9256;52.236;5.712;2023-03-23T04:27:24;11.80;99.90
18260;DHT22;9256;52.236;5.712;2023-03-23T04:29:53;11.80;99.90
18260;DHT22;9256;52.236;5.712;2023-03-23T04:32:22;11.90;99.90
18260;DHT22;9256;52.236;5.712;2023-03-23T04:34:50;11.80;99.90
18260;DHT22;9256;52.236;5.712;2023-03-23T04:37:17;11.90;99.90
18260;DHT22;9256;52.236;5.712;2023-03-23T04:39:44;11.90;99.90
18260;DHT22;9256;52.236;5.712;2023-03-23T04:42:12;11.90;99.90
18260;DHT22;9256;52.236;5.712;2023-03-23T04:44:40;11.80;99.90
18260;DHT22;9256;52.236;5.712;2023-03-23T04:47:08;11.80;99.90
18260;DHT22;9256;52.236;5.712;2023-03-23T04:49:37;11.90;99.90
18260;DHT22;9256;52.236;5.712;2023-03-23T04:52:04;11.90;99.90
18260;DHT22;9256;52.236;5.712;2023-03-23T04:54:31;11.90;99.90
18260;DHT22;9256;52.236;5.712;2023-03-23T04:56:58;11.90;99.90
18260;DHT22;9256;52.236;5.712;2023-03-23T04:59:26;11.90;99.90
18260;DHT22;9256;52.236;5.712;2023-03-23T05:01:54;12.00;99.90
18260;DHT22;9256;52.236;5.712;2023-03-23T05:04:21;12.00;99.90
18260;DHT22;9256;52.236;5.712;2023-03-23T05:06:51;12.00;99.90
18260;DHT22;9256;52.236;5.712;2023-03-23T05:09:18;12.00;99.90
18260;DHT22;9256;52.236;5.712;2023-03-23T05:11:49;12.10;99.90
18260;DHT22;9256;52.236;5.712;2023-03-23T05:14:16;12.10;99.90
18260;DHT22;9256;52.236;5.712;2023-03-23T05:16:43;12.00;99.90
18260;DHT22;9256;52.236;5.712;2023-03-23T05:19:14;12.00;99.90
18260;DHT22;9256;52.236;5.712;2023-03-23T05:21:41;12.00;99.90
18260;DHT22;9256;52.236;5.712;2023-03-23T05:24:11;12.00;99.90
18260;DHT22;9256;52.236;5.712;2023-03-23T05:26:40;12.00;99.90
18260;DHT22;9256;52.236;5.712;2023-03-23T05:29:07;12.00;99.90
18260;DHT22;9256;52.236;5.712;2023-03-23T05:31:36;11.90;99.90
18260;DHT22;9256;52.236;5.712;2023-03-23T05:34:03;11.90;99.90
18260;DHT22;9256;52.236;5.712;2023-03-23T05:36:30;11.90;99.90
18260;DHT22;9256;52.236;5.712;2023-03-23T05:38:57;11.80;99.90
18260;DHT22;9256;52.236;5.712;2023-03-23T05:41:27;11.70;99.90
18260;DHT22;9256;52.236;5.712;2023-03-23T05:43:53;11.60;99.90
18260;DHT22;9256;52.236;5.712;2023-03-23T05:46:20;11.40;99.90
18260;DHT22;9256;52.236;5.712;2023-03-23T05:48:47;11.20;99.90
18260;DHT22;9256;52.236;5.712;2023-03-23T05:51:14;11.00;99.90
18260;DHT22;9256;52.236;5.712;2023-03-23T05:53:41;10.90;99.90
18260;DHT22;9256;52.236;5.712;2023-03-23T05:56:11;10.80;99.90
18260;DHT22;9256;52.236;5.712;2023-03-23T05:58:40;10.70;99.90
18260;DHT22;9256;52.236;5.712;2023-03-23T06:01:07;10.60;99.90
18260;DHT22;9256;52.236;5.712;2023-03-23T06:03:34;10.50;99.90
18260;DHT22;9256;52.236;5.712;2023-03-23T06:06:02;10.40;99.90
18260;DHT22;9256;52.236;5.712;2023-03-23T06:08:29;10.40;99.90
18260;DHT22;9256;52.236;5.712;2023-03-23T06:10:56;10.40;99.90
18260;DHT22;9256;52.236;5.712;2023-03-23T06:13:23;10.40;99.90
18260;DHT22;9256;52.236;5.712;2023-03-23T06:15:55;10.40;99.90
18260;DHT22;9256;52.236;5.712;2023-03-23T06:18:23;10.40;99.90
18260;DHT22;9256;52.236;5.712;2023-03-23T06:20:50;10.40;99.90
18260;DHT22;9256;52.236;5.712;2023-03-23T06:23:17;10.40;99.90
18260;DHT22;9256;52.236;5.712;2023-03-23T06:25:44;10.40;99.90
18260;DHT22;9256;52.236;5.712;2023-03-23T06:28:11;10.40;99.90
18260;DHT22;9256;52.236;5.712;2023-03-23T06:30:38;10.50;99.90
18260;DHT22;9256;52.236;5.712;2023-03-23T06:33:06;10.50;99.90
18260;DHT22;9256;52.236;5.712;2023-03-23T06:35:35;10.50;99.90
18260;DHT22;9256;52.236;5.712;2023-03-23T06:38:02;10.50;99.90
18260;DHT22;9256;52.236;5.712;2023-03-23T06:40:29;10.50;99.90
18260;DHT22;9256;52.236;5.712;2023-03-23T06:42:57;10.40;99.90
18260;DHT22;9256;52.236;5.712;2023-03-23T06:45:24;10.40;99.90
18260;DHT22;9256;52.236;5.712;2023-03-23T06:47:52;10.40;99.90
18260;DHT22;9256;52.236;5.712;2023-03-23T06:50:21;10.30;99.90
18260;DHT22;9256;52.236;5.712;2023-03-23T06:52:50;10.30;99.90
18260;DHT22;9256;52.236;5.712;2023-03-23T06:55:17;10.30;99.90
18260;DHT22;9256;52.236;5.712;2023-03-23T06:57:45;10.30;99.90
18260;DHT22;9256;52.236;5.712;2023-03-23T07:00:12;10.30;99.90
18260;DHT22;9256;52.236;5.712;2023-03-23T07:02:41;10.30;99.90
18260;DHT22;9256;52.236;5.712;2023-03-23T07:05:09;10.30;99.90
18260;DHT22;9256;52.236;5.712;2023-03-23T07:07:38;10.30;99.90
18260;DHT22;9256;52.236;5.712;2023-03-23T07:10:07;10.30;99.90
18260;DHT22;9256;52.236;5.712;2023-03-23T07:12:36;10.30;99.90
18260;DHT22;9256;52.236;5.712;2023-03-23T07:15:03;10.30;99.90
18260;DHT22;9256;52.236;5.712;2023-03-23T07:17:30;10.30;99.90
18260;DHT22;9256;52.236;5.712;2023-03-23T07:19:58;10.40;99.90
18260;DHT22;9256;52.236;5.712;2023-03-23T07:22:24;10.40;99.90
18260;DHT22;9256;52.236;5.712;2023-03-23T07:24:53;10.40;99.90
18260;DHT22;9256;52.236;5.712;2023-03-23T07:27:20;10.40;99.90
18260;DHT22;9256;52.236;5.712;2023-03-23T07:29:47;10.40;99.90
18260;DHT22;9256;52.236;5.712;2023-03-23T07:32:14;10.40;99.90
18260;DHT22;9256;52.236;5.712;2023-03-23T07:34:41;10.40;99.90
18260;DHT22;9256;52.236;5.712;2023-03-23T07:37:08;10.40;99.90
18260;DHT22;9256;52.236;5.712;2023-03-23T07:39:35;10.40;99.90
18260;DHT22;9256;52.236;5.712;2023-03-23T07:42:04;10.50;99.90
18260;DHT22;9256;52.236;5.712;2023-03-23T07:44:33;10.50;99.90
18260;DHT22;9256;52.236;5.712;2023-03-23T07:47:00;10.60;99.90
18260;DHT22;9256;52.236;5.712;2023-03-23T07:49:26;10.70;99.90
18260;DHT22;9256;52.236;5.712;2023-03-23T07:51:54;10.80;99.90
18260;DHT22;9256;52.236;5.712;2023-03-23T07:54:21;10.90;99.90
18260;DHT22;9256;52.236;5.712;2023-03-23T07:56:48;10.90;99.90
18260;DHT22;9256;52.236;5.712;2023-03-23T07:59:16;10.90;99.90
18260;DHT22;9256;52.236;5.712;2023-03-23T08:01:43;11.00;99.90
18260;DHT22;9256;52.236;5.712;2023-03-23T08:04:10;10.90;99.90
18260;DHT22;9256;52.236;5.712;2023-03-23T08:06:39;11.10;99.90
18260;DHT22;9256;52.236;5.712;2023-03-23T08:09:06;11.20;99.90
18260;DHT22;9256;52.236;5.712;2023-03-23T08:11:34;11.30;99.90
18260;DHT22;9256;52.236;5.712;2023-03-23T08:14:02;11.20;99.90
18260;DHT22;9256;52.236;5.712;2023-03-23T08:16:32;11.20;99.90
18260;DHT22;9256;52.236;5.712;2023-03-23T08:18:59;11.20;99.90
18260;DHT22;9256;52.236;5.712;2023-03-23T08:21:26;11.20;99.90
18260;DHT22;9256;52.236;5.712;2023-03-23T08:23:54;11.20;99.90
18260;DHT22;9256;52.236;5.712;2023-03-23T08:26:21;11.20;99.90
18260;DHT22;9256;52.236;5.712;2023-03-23T08:28:48;11.20;99.90
18260;DHT22;9256;52.236;5.712;2023-03-23T08:31:15;11.20;99.90
18260;DHT22;9256;52.236;5.712;2023-03-23T08:33:44;11.20;99.90
18260;DHT22;9256;52.236;5.712;2023-03-23T08:36:11;11.20;99.90
18260;DHT22;9256;52.236;5.712;2023-03-23T08:38:38;11.30;99.90
18260;DHT22;9256;52.236;5.712;2023-03-23T08:41:06;11.30;99.90
18260;DHT22;9256;52.236;5.712;2023-03-23T08:43:34;11.40;99.90
18260;DHT22;9256;52.236;5.712;2023-03-23T08:46:02;11.50;99.90
18260;DHT22;9256;52.236;5.712;2023-03-23T08:48:32;11.60;99.90
18260;DHT22;9256;52.236;5.712;2023-03-23T08:51:02;11.70;99.90
18260;DHT22;9256;52.236;5.712;2023-03-23T08:53:30;11.60;99.90
18260;DHT22;9256;52.236;5.712;2023-03-23T08:56:03;11.70;99.90
18260;DHT22;9256;52.236;5.712;2023-03-23T08:58:30;11.70;99.90
18260;DHT22;9256;52.236;5.712;2023-03-23T09:00:58;11.60;99.90
18260;DHT22;9256;52.236;5.712;2023-03-23T09:03:25;11.60;99.90
18260;DHT22;9256;52.236;5.712;2023-03-23T09:05:52;11.50;99.90
18260;DHT22;9256;52.236;5.712;2023-03-23T09:08:20;11.50;99.90
18260;DHT22;9256;52.236;5.712;2023-03-23T09:10:47;11.50;99.90
18260;DHT22;9256;52.236;5.712;2023-03-23T09:13:15;11.50;99.90
18260;DHT22;9256;52.236;5.712;2023-03-23T09:15:42;11.50;99.90
18260;DHT22;9256;52.236;5.712;2023-03-23T09:18:10;11.70;99.90
18260;DHT22;9256;52.236;5.712;2023-03-23T09:20:37;11.70;99.90
18260;DHT22;9256;52.236;5.712;2023-03-23T09:23:04;11.70;99.90
18260;DHT22;9256;52.236;5.712;2023-03-23T09:25:32;11.70;99.90
18260;DHT22;9256;52.236;5.712;2023-03-23T09:27:59;11.70;99.90
18260;DHT22;9256;52.236;5.712;2023-03-23T09:30:28;11.60;99.90
18260;DHT22;9256;52.236;5.712;2023-03-23T09:32:55;11.70;99.90
18260;DHT22;9256;52.236;5.712;2023-03-23T09:35:24;11.80;99.90
18260;DHT22;9256;52.236;5.712;2023-03-23T09:37:51;11.80;99.90
18260;DHT22;9256;52.236;5.712;2023-03-23T09:40:23;11.90;99.90
18260;DHT22;9256;52.236;5.712;2023-03-23T09:43:09;12.20;99.90
18260;DHT22;9256;52.236;5.712;2023-03-23T09:45:46;12.40;99.90
18260;DHT22;9256;52.236;5.712;2023-03-23T09:48:43;12.60;99.90
18260;DHT22;9256;52.236;5.712;2023-03-23T09:51:21;13.00;99.90
18260;DHT22;9256;52.236;5.712;2023-03-23T09:53:54;13.20;99.90
18260;DHT22;9256;52.236;5.712;2023-03-23T09:56:23;13.00;99.90
18260;DHT22;9256;52.236;5.712;2023-03-23T09:58:57;12.80;99.90
18260;DHT22;9256;52.236;5.712;2023-03-23T10:01:26;12.90;99.90
18260;DHT22;9256;52.236;5.712;2023-03-23T10:03:59;13.20;99.90
18260;DHT22;9256;52.236;5.712;2023-03-23T10:06:28;13.30;99.90
18260;DHT22;9256;52.236;5.712;2023-03-23T10:08:57;13.30;99.90
18260;DHT22;9256;52.236;5.712;2023-03-23T10:11:36;13.30;99.90
18260;DHT22;9256;52.236;5.712;2023-03-23T10:14:17;13.40;99.90
18260;DHT22;9256;52.236;5.712;2023-03-23T10:16:55;13.60;99.90
18260;DHT22;9256;52.236;5.712;2023-03-23T10:19:29;13.40;99.90
18260;DHT22;9256;52.236;5.712;2023-03-23T10:22:02;13.40;99.90
18260;DHT22;9256;52.236;5.712;2023-03-23T10:24:34;13.50;99.90
18260;DHT22;9256;52.236;5.712;2023-03-23T10:27:09;13.60;99.90
18260;DHT22;9256;52.236;5.712;2023-03-23T10:29:42;13.60;99.90
18260;DHT22;9256;52.236;5.712;2023-03-23T10:32:13;13.50;99.90
18260;DHT22;9256;52.236;5.712;2023-03-23T10:34:44;13.70;99.90
18260;DHT22;9256;52.236;5.712;2023-03-23T10:37:15;13.60;99.90
18260;DHT22;9256;52.236;5.712;2023-03-23T10:39:47;13.60;99.90
18260;DHT22;9256;52.236;5.712;2023-03-23T10:42:22;13.70;99.90
18260;DHT22;9256;52.236;5.712;2023-03-23T10:44:51;13.60;99.90
18260;DHT22;9256;52.236;5.712;2023-03-23T10:47:19;13.60;99.90
18260;DHT22;9256;52.236;5.712;2023-03-23T10:49:49;13.90;99.90
18260;DHT22;9256;52.236;5.712;2023-03-23T10:52:27;14.00;99.90
18260;DHT22;9256;52.236;5.712;2023-03-23T10:54:57;13.90;99.90
18260;DHT22;9256;52.236;5.712;2023-03-23T10:57:26;13.70;99.90
18260;DHT22;9256;52.236;5.712;2023-03-23T11:00:00;13.60;99.90
18260;DHT22;9256;52.236;5.712;2023-03-23T11:02:35;13.60;99.90
18260;DHT22;9256;52.236;5.712;2023-03-23T11:05:06;13.70;99.90
18260;DHT22;9256;52.236;5.712;2023-03-23T11:07:35;14.10;99.90
18260;DHT22;9256;52.236;5.712;2023-03-23T11:10:14;14.30;99.90
18260;DHT22;9256;52.236;5.712;2023-03-23T11:12:44;14.60;99.90
18260;DHT22;9256;52.236;5.712;2023-03-23T11:15:26;14.80;99.90
18260;DHT22;9256;52.236;5.712;2023-03-23T11:17:58;14.80;99.90
18260;DHT22;9256;52.236;5.712;2023-03-23T11:20:27;14.70;99.90
18260;DHT22;9256;52.236;5.712;2023-03-23T11:22:55;14.80;99.90
18260;DHT22;9256;52.236;5.712;2023-03-23T11:25:22;14.70;99.90
18260;DHT22;9256;52.236;5.712;2023-03-23T11:27:50;14.70;99.90
18260;DHT22;9256;52.236;5.712;2023-03-23T11:30:24;14.40;99.90
18260;DHT22;9256;52.236;5.712;2023-03-23T11:32:54;14.60;99.90
18260;DHT22;9256;52.236;5.712;2023-03-23T11:35:25;14.60;99.90
18260;DHT22;9256;52.236;5.712;2023-03-23T11:37:54;15.00;99.90
18260;DHT22;9256;52.236;5.712;2023-03-23T11:40:23;15.20;99.90
18260;DHT22;9256;52.236;5.712;2023-03-23T11:42:58;15.40;99.90
18260;DHT22;9256;52.236;5.712;2023-03-23T11:45:31;15.50;99.90
18260;DHT22;9256;52.236;5.712;2023-03-23T11:48:06;15.40;99.90
18260;DHT22;9256;52.236;5.712;2023-03-23T11:50:47;15.50;99.90
18260;DHT22;9256;52.236;5.712;2023-03-23T11:53:30;15.50;99.90
18260;DHT22;9256;52.236;5.712;2023-03-23T11:56:07;15.30;99.90
18260;DHT22;9256;52.236;5.712;2023-03-23T11:58:34;15.10;99.90
18260;DHT22;9256;52.236;5.712;2023-03-23T12:01:09;15.10;99.90
18260;DHT22;9256;52.236;5.712;2023-03-23T12:03:58;15.60;99.90
18260;DHT22;9256;52.236;5.712;2023-03-23T12:06:35;16.00;99.90
18260;DHT22;9256;52.236;5.712;2023-03-23T12:09:17;15.80;99.90
18260;DHT22;9256;52.236;5.712;2023-03-23T12:11:55;16.00;99.90
18260;DHT22;9256;52.236;5.712;2023-03-23T12:14:29;15.60;99.90
18260;DHT22;9256;52.236;5.712;2023-03-23T12:17:06;15.20;99.90
18260;DHT22;9256;52.236;5.712;2023-03-23T12:19:43;14.80;99.90
18260;DHT22;9256;52.236;5.712;2023-03-23T12:22:24;14.30;99.90
18260;DHT22;9256;52.236;5.712;2023-03-23T12:25:04;13.90;99.90
18260;DHT22;9256;52.236;5.712;2023-03-23T12:27:37;13.60;99.90
18260;DHT22;9256;52.236;5.712;2023-03-23T12:30:25;13.30;99.90
18260;DHT22;9256;52.236;5.712;2023-03-23T12:33:15;13.90;99.90
18260;DHT22;9256;52.236;5.712;2023-03-23T12:35:51;14.80;99.90
18260;DHT22;9256;52.236;5.712;2023-03-23T12:38:41;15.60;99.90
18260;DHT22;9256;52.236;5.712;2023-03-23T12:41:16;15.30;99.90
18260;DHT22;9256;52.236;5.712;2023-03-23T12:43:57;15.20;99.90
18260;DHT22;9256;52.236;5.712;2023-03-23T12:46:50;15.10;99.90
18260;DHT22;9256;52.236;5.712;2023-03-23T12:49:24;14.80;99.90
18260;DHT22;9256;52.236;5.712;2023-03-23T12:51:57;14.50;99.90
18260;DHT22;9256;52.236;5.712;2023-03-23T12:54:29;14.50;99.90
18260;DHT22;9256;52.236;5.712;2023-03-23T12:57:02;14.40;99.90
18260;DHT22;9256;52.236;5.712;2023-03-23T12:59:36;14.10;99.90
18260;DHT22;9256;52.236;5.712;2023-03-23T13:02:15;14.00;99.90
18260;DHT22;9256;52.236;5.712;2023-03-23T13:04:47;13.60;99.90
18260;DHT22;9256;52.236;5.712;2023-03-23T13:07:21;13.30;99.90
18260;DHT22;9256;52.236;5.712;2023-03-23T13:09:55;13.60;99.90
18260;DHT22;9256;52.236;5.712;2023-03-23T13:12:25;13.90;99.90
18260;DHT22;9256;52.236;5.712;2023-03-23T13:15:01;14.50;99.90
18260;DHT22;9256;52.236;5.712;2023-03-23T13:17:38;14.60;99.90
18260;DHT22;9256;52.236;5.712;2023-03-23T13:20:34;14.60;99.90
18260;DHT22;9256;52.236;5.712;2023-03-23T13:23:09;15.10;99.90
18260;DHT22;9256;52.236;5.712;2023-03-23T13:25:49;14.80;99.90
18260;DHT22;9256;52.236;5.712;2023-03-23T13:28:18;14.50;99.90
18260;DHT22;9256;52.236;5.712;2023-03-23T13:30:59;14.30;99.90
18260;DHT22;9256;52.236;5.712;2023-03-23T13:33:30;14.50;99.90
18260;DHT22;9256;52.236;5.712;2023-03-23T13:36:07;15.30;99.90
18260;DHT22;9256;52.236;5.712;2023-03-23T13:38:34;15.60;99.90
18260;DHT22;9256;52.236;5.712;2023-03-23T13:41:07;15.20;99.90
18260;DHT22;9256;52.236;5.712;2023-03-23T13:43:37;14.90;99.90
18260;DHT22;9256;52.236;5.712;2023-03-23T13:46:25;15.00;99.90
18260;DHT22;9256;52.236;5.712;2023-03-23T13:49:05;15.90;99.90
18260;DHT22;9256;52.236;5.712;2023-03-23T13:51:36;16.70;99.90
18260;DHT22;9256;52.236;5.712;2023-03-23T13:54:13;17.40;99.90
18260;DHT22;9256;52.236;5.712;2023-03-23T13:56:41;16.70;99.90
18260;DHT22;9256;52.236;5.712;2023-03-23T13:59:14;15.90;99.90
18260;DHT22;9256;52.236;5.712;2023-03-23T14:01:42;15.50;99.90
18260;DHT22;9256;52.236;5.712;2023-03-23T14:04:12;15.10;99.90
18260;DHT22;9256;52.236;5.712;2023-03-23T14:06:43;14.80;99.90
18260;DHT22;9256;52.236;5.712;2023-03-23T14:09:14;14.70;99.90
18260;DHT22;9256;52.236;5.712;2023-03-23T14:11:50;15.00;99.90
18260;DHT22;9256;52.236;5.712;2023-03-23T14:14:23;15.30;99.90
18260;DHT22;9256;52.236;5.712;2023-03-23T14:16:52;15.70;99.90
18260;DHT22;9256;52.236;5.712;2023-03-23T14:19:22;15.70;99.90
18260;DHT22;9256;52.236;5.712;2023-03-23T14:21:53;15.40;99.90
18260;DHT22;9256;52.236;5.712;2023-03-23T14:24:23;15.00;99.90
18260;DHT22;9256;52.236;5.712;2023-03-23T14:26:51;14.90;99.90
18260;DHT22;9256;52.236;5.712;2023-03-23T14:29:20;14.60;99.90
18260;DHT22;9256;52.236;5.712;2023-03-23T14:31:53;14.40;99.90
18260;DHT22;9256;52.236;5.712;2023-03-23T14:34:24;14.10;99.90
18260;DHT22;9256;52.236;5.712;2023-03-23T14:36:53;13.70;99.90
18260;DHT22;9256;52.236;5.712;2023-03-23T14:39:24;13.40;99.90
18260;DHT22;9256;52.236;5.712;2023-03-23T14:41:54;13.20;99.90
18260;DHT22;9256;52.236;5.712;2023-03-23T14:44:24;12.90;99.90
18260;DHT22;9256;52.236;5.712;2023-03-23T14:46:53;12.80;99.90
18260;DHT22;9256;52.236;5.712;2023-03-23T14:49:27;12.80;99.90
18260;DHT22;9256;52.236;5.712;2023-03-23T14:51:56;13.70;99.90
18260;DHT22;9256;52.236;5.712;2023-03-23T14:54:24;15.10;99.90
18260;DHT22;9256;52.236;5.712;2023-03-23T14:56:52;16.10;99.90
18260;DHT22;9256;52.236;5.712;2023-03-23T14:59:19;16.70;99.90
18260;DHT22;9256;52.236;5.712;2023-03-23T15:01:47;17.40;99.90
18260;DHT22;9256;52.236;5.712;2023-03-23T15:04:18;17.40;99.90
18260;DHT22;9256;52.236;5.712;2023-03-23T15:06:49;17.40;99.90
18260;DHT22;9256;52.236;5.712;2023-03-23T15:09:21;17.40;99.90
18260;DHT22;9256;52.236;5.712;2023-03-23T15:11:55;17.10;99.90
18260;DHT22;9256;52.236;5.712;2023-03-23T15:14:27;16.60;99.90
18260;DHT22;9256;52.236;5.712;2023-03-23T15:16:56;17.00;99.90
18260;DHT22;9256;52.236;5.712;2023-03-23T15:19:25;17.10;99.90
18260;DHT22;9256;52.236;5.712;2023-03-23T15:21:54;16.90;99.90
18260;DHT22;9256;52.236;5.712;2023-03-23T15:24:31;16.60;99.90
18260;DHT22;9256;52.236;5.712;2023-03-23T15:27:24;16.60;99.90
18260;DHT22;9256;52.236;5.712;2023-03-23T15:29:52;16.60;99.90
18260;DHT22;9256;52.236;5.712;2023-03-23T15:32:24;16.50;99.90
18260;DHT22;9256;52.236;5.712;2023-03-23T15:34:52;16.40;99.90
18260;DHT22;9256;52.236;5.712;2023-03-23T15:37:24;16.50;99.90
18260;DHT22;9256;52.236;5.712;2023-03-23T15:39:53;16.20;99.90
18260;DHT22;9256;52.236;5.712;2023-03-23T15:42:23;16.20;99.90
18260;DHT22;9256;52.236;5.712;2023-03-23T15:45:04;16.60;99.90
18260;DHT22;9256;52.236;5.712;2023-03-23T15:47:37;17.00;99.90
18260;DHT22;9256;52.236;5.712;2023-03-23T15:50:11;17.00;99.90
18260;DHT22;9256;52.236;5.712;2023-03-23T15:52:39;16.60;99.90
18260;DHT22;9256;52.236;5.712;2023-03-23T15:55:20;15.90;99.90
18260;DHT22;9256;52.236;5.712;2023-03-23T15:57:48;15.70;99.90
18260;DHT22;9256;52.236;5.712;2023-03-23T16:00:16;15.50;99.90
18260;DHT22;9256;52.236;5.712;2023-03-23T16:02:44;15.30;99.90
18260;DHT22;9256;52.236;5.712;2023-03-23T16:05:12;15.30;99.90
18260;DHT22;9256;52.236;5.712;2023-03-23T16:07:39;15.70;99.90
18260;DHT22;9256;52.236;5.712;2023-03-23T16:10:10;16.30;99.90
18260;DHT22;9256;52.236;5.712;2023-03-23T16:12:42;17.50;99.90